Terminal Aerodrome Forecast
Issued by NWS

Home | Current Version | Previous Version | Text Only | Print | Product List | Glossary On
Versions: 1 2 3 4 5 6 7 8 9 10 11 12 13 14 15 16
721
FTUS45 KGGW 192333
TAFSDY
TAF
KSDY 192333Z 2000/2024 31013KT P6SM SCT100
     FM200300 36006KT P6SM FEW110
     FM201000 VRB03KT P6SM BKN120
     FM201800 13007KT P6SM BKN110=

USA.gov is the U.S. government's official web portal to all federal, state and local government web resources and services.